LIED/DCI METAR and TAF weather

Enter ICAO airport designator
Station Type Date Time Source
LIED METAR 2021/05/13 05:55 UTC NOAA

LIED 130555Z 30003KT 9999 SCT030 18/15 Q1012 RMK SCT VIS MIN 9999 WIND THR35 30002KT WIND THR17 30003KT BLU


Station Type Date Time Source
LIED Decoded METAR 2021/05/13 05:55 UTC NOAA

Decimomannu, Italy (LIED) 39-21N 008-58E 28M
May 13, 2021 - 01:55 AM EDT / 2021.05.13 0555 UTC
Wind: from the WNW (300 degrees) at 3 MPH (3 KT):0
Visibility: greater than 7 mile(s):0
Sky conditions: partly cloudy
Temperature: 64 F (18 C)
Dew Point: 59 F (15 C)
Relative Humidity: 82%
Pressure (altimeter): 29.88 in. Hg (1012 hPa)
ob: LIED 130555Z 30003KT 9999 SCT030 18/15 Q1012 RMK SCT VIS MIN 9999 WIND THR35 30002KT WIND THR17 30003KT BLU
cycle: 6

Station Type Date Time Source
LIED TAF 2021/01/17 03:30 UTC NOAA

TAF TAF LIED 170500Z 1703/1715 03003KT 9999 FEW020 SCT040
TEMPO 1706/1710 RA SCT020 BKN060
BECMG 1708/1710 33018KT
TEMPO 1710/1715 33025G35KT
TEMPO 1713/1715 RA

Example: see airport list